createdAt,value
2018-06-16T00:01:44.020Z,14.79
2018-06-16T00:04:12.757Z,14.72
2018-06-16T00:06:41.424Z,14.65
2018-06-16T00:09:10.596Z,14.58
2018-06-16T00:11:39.475Z,14.59
2018-06-16T00:14:08.382Z,14.57
2018-06-16T00:16:37.168Z,14.52
2018-06-16T00:19:05.887Z,14.44
2018-06-16T00:21:34.585Z,14.33
2018-06-16T00:24:03.290Z,14.26
2018-06-16T00:26:31.997Z,14.25
2018-06-16T00:29:00.798Z,14.20
2018-06-16T00:31:29.501Z,14.17
2018-06-16T00:33:58.244Z,14.13
2018-06-16T00:36:26.880Z,14.07
2018-06-16T00:38:55.811Z,14.06
2018-06-16T00:41:24.537Z,13.98
2018-06-16T00:43:53.355Z,13.92
2018-06-16T00:46:22.069Z,13.80
2018-06-16T00:48:50.937Z,13.75
2018-06-16T00:51:19.646Z,13.75
2018-06-16T00:53:48.388Z,13.76
2018-06-16T00:56:17.095Z,13.75
2018-06-16T00:58:45.790Z,13.78
2018-06-16T01:01:14.490Z,13.85
2018-06-16T01:03:43.298Z,13.91
2018-06-16T01:06:11.957Z,13.94
2018-06-16T01:08:40.758Z,13.94
2018-06-16T01:11:09.367Z,13.91
2018-06-16T01:13:38.023Z,13.89
2018-06-16T01:16:06.768Z,13.91
2018-06-16T01:18:35.420Z,13.91
2018-06-16T01:21:04.185Z,13.91
2018-06-16T01:23:32.936Z,13.87
2018-06-16T01:26:01.827Z,13.88
2018-06-16T01:28:30.479Z,13.87
2018-06-16T01:30:59.205Z,13.82
2018-06-16T01:33:27.876Z,13.74
2018-06-16T01:35:56.594Z,13.82
2018-06-16T01:38:25.224Z,13.77
2018-06-16T01:40:53.939Z,13.70
2018-06-16T01:43:22.719Z,13.65
2018-06-16T01:45:52.250Z,13.62
2018-06-16T01:48:20.930Z,13.56
2018-06-16T01:50:49.668Z,13.48
2018-06-16T01:53:18.381Z,13.43
2018-06-16T01:55:47.095Z,13.37
2018-06-16T01:58:15.782Z,13.34
2018-06-16T02:00:44.549Z,13.28
2018-06-16T02:03:13.302Z,13.29
2018-06-16T02:05:42.025Z,13.26
2018-06-16T02:08:10.718Z,13.26
2018-06-16T02:10:40.599Z,13.18
2018-06-16T02:13:09.278Z,13.18
2018-06-16T02:15:38.028Z,13.19
2018-06-16T02:18:06.735Z,13.20
2018-06-16T02:20:35.541Z,13.14
2018-06-16T02:23:04.512Z,13.09
2018-06-16T02:25:33.199Z,13.01
2018-06-16T02:28:01.836Z,12.99
2018-06-16T02:30:30.564Z,12.93
2018-06-16T02:32:59.214Z,12.92
2018-06-16T02:35:27.983Z,12.88
2018-06-16T02:37:56.914Z,12.81
2018-06-16T02:40:25.628Z,12.75
2018-06-16T02:42:54.432Z,12.76
2018-06-16T02:45:23.305Z,12.78
2018-06-16T02:47:51.944Z,12.79
2018-06-16T02:50:20.668Z,12.85
2018-06-16T02:52:49.299Z,12.80
2018-06-16T02:55:18.147Z,12.78
2018-06-16T02:57:46.881Z,12.72
2018-06-16T03:00:15.663Z,12.71
2018-06-16T03:02:44.429Z,12.68
2018-06-16T03:05:13.152Z,12.80
2018-06-16T03:07:42.088Z,12.82
2018-06-16T03:10:10.749Z,12.79
2018-06-16T03:12:39.386Z,12.78
2018-06-16T03:15:08.180Z,12.74
2018-06-16T03:17:36.947Z,12.73
2018-06-16T03:20:06.222Z,12.71
2018-06-16T03:22:35.044Z,12.73
2018-06-16T03:25:03.734Z,12.82
2018-06-16T03:27:32.388Z,12.81
2018-06-16T03:30:01.097Z,12.84
2018-06-16T03:32:29.733Z,12.76
2018-06-16T03:34:58.510Z,12.80
2018-06-16T03:37:27.206Z,12.83
2018-06-16T03:39:56.062Z,12.83
2018-06-16T03:42:24.709Z,12.78
2018-06-16T03:44:53.794Z,12.74
2018-06-16T03:47:22.920Z,12.70
2018-06-16T03:49:51.717Z,12.70
2018-06-16T03:52:20.364Z,12.74
2018-06-16T03:54:49.085Z,12.79
2018-06-16T03:57:18.046Z,12.82
2018-06-16T03:59:48.519Z,12.86
2018-06-16T04:02:17.682Z,12.87
2018-06-16T04:04:46.496Z,12.89
2018-06-16T04:07:16.423Z,12.96
2018-06-16T04:09:45.132Z,13.01
2018-06-16T04:12:13.993Z,13.13
2018-06-16T04:14:42.923Z,13.26
2018-06-16T04:17:25.798Z,13.56
2018-06-16T04:19:54.650Z,13.58
2018-06-16T04:22:23.322Z,13.66
2018-06-16T04:24:52.058Z,13.70
2018-06-16T04:27:20.950Z,13.75
2018-06-16T04:29:49.735Z,13.69
2018-06-16T04:32:18.553Z,13.75
2018-06-16T04:34:47.567Z,13.85
2018-06-16T04:37:16.302Z,13.88
2018-06-16T04:39:45.715Z,13.90
2018-06-16T04:42:14.321Z,14.07
2018-06-16T04:44:43.007Z,14.23
2018-06-16T04:47:11.711Z,14.31
2018-06-16T04:49:40.412Z,14.31
2018-06-16T04:52:09.048Z,14.32
2018-06-16T04:54:37.983Z,14.49
2018-06-16T04:57:07.748Z,14.60
2018-06-16T04:59:36.474Z,14.72
2018-06-16T05:02:05.771Z,14.83
2018-06-16T05:04:34.597Z,14.96
2018-06-16T05:07:03.572Z,15.17
2018-06-16T05:09:32.474Z,15.29
2018-06-16T05:12:01.270Z,15.46
2018-06-16T05:14:30.378Z,15.65
2018-06-16T05:16:59.462Z,15.73
2018-06-16T05:19:28.312Z,15.90
2018-06-16T05:21:57.142Z,15.98
2018-06-16T05:24:25.841Z,16.29
2018-06-16T05:26:55.306Z,16.32
2018-06-16T05:29:24.389Z,16.30
2018-06-16T05:31:53.309Z,16.40
2018-06-16T05:34:22.033Z,16.38
2018-06-16T05:36:50.899Z,16.42
2018-06-16T05:43:28.840Z,16.63
2018-06-16T05:45:57.661Z,16.67
2018-06-16T05:48:26.457Z,16.81
2018-06-16T05:50:55.496Z,16.88
2018-06-16T05:53:24.260Z,16.98
2018-06-16T05:55:54.172Z,17.13
2018-06-16T05:58:22.875Z,17.22
2018-06-16T06:00:51.609Z,17.33
2018-06-16T06:03:20.466Z,17.51
2018-06-16T06:05:49.197Z,17.52
2018-06-16T06:08:18.107Z,17.43
2018-06-16T06:10:46.754Z,17.71
2018-06-16T06:13:15.517Z,17.92
2018-06-16T06:15:44.293Z,18.14
2018-06-16T06:18:13.067Z,18.27
2018-06-16T06:20:41.810Z,18.44
2018-06-16T06:23:10.504Z,18.59
2018-06-16T06:25:39.232Z,18.65
2018-06-16T06:28:07.900Z,18.70
2018-06-16T06:30:36.490Z,18.89
2018-06-16T06:33:05.194Z,19.02
2018-06-16T06:35:33.977Z,19.16
2018-06-16T06:38:02.791Z,19.27
2018-06-16T06:40:31.443Z,19.38
2018-06-16T06:43:00.330Z,19.32
2018-06-16T06:45:29.174Z,19.43
2018-06-16T06:47:57.757Z,19.51
2018-06-16T06:50:28.697Z,19.60
2018-06-16T06:52:57.380Z,19.86
2018-06-16T06:55:26.022Z,20.24
2018-06-16T06:57:54.803Z,20.37
2018-06-16T07:00:23.571Z,20.64
2018-06-16T07:02:52.248Z,20.80
2018-06-16T07:05:20.991Z,21.13
2018-06-16T07:07:49.606Z,21.20
2018-06-16T07:10:18.355Z,21.35
2018-06-16T07:12:46.968Z,21.40
2018-06-16T07:15:15.752Z,21.32
2018-06-16T07:17:45.091Z,21.54
2018-06-16T07:20:14.051Z,21.76
2018-06-16T07:22:42.675Z,22.04
2018-06-16T07:25:11.562Z,22.22
2018-06-16T07:27:40.455Z,22.19
2018-06-16T07:30:09.333Z,22.29
2018-06-16T07:32:38.142Z,22.30
2018-06-16T07:35:07.151Z,22.56
2018-06-16T07:37:36.146Z,22.64
2018-06-16T07:40:06.842Z,23.07
2018-06-16T07:42:35.601Z,22.90
2018-06-16T07:45:04.756Z,22.79
2018-06-16T07:47:34.098Z,22.91
2018-06-16T07:50:03.216Z,22.90
2018-06-16T07:52:31.897Z,23.11
2018-06-16T07:55:00.874Z,23.10
2018-06-16T07:57:29.665Z,23.46
2018-06-16T07:59:58.479Z,23.37
2018-06-16T08:02:27.119Z,23.33
2018-06-16T08:04:55.811Z,23.30
2018-06-16T08:07:24.456Z,23.38
2018-06-16T08:09:53.053Z,23.61
2018-06-16T08:12:21.998Z,23.59
2018-06-16T08:14:50.595Z,23.46
2018-06-16T08:17:19.500Z,23.67
2018-06-16T08:19:48.183Z,23.33
2018-06-16T08:22:16.966Z,23.62
2018-06-16T08:24:45.669Z,23.78
2018-06-16T08:27:14.989Z,24.01
2018-06-16T08:29:44.018Z,24.19
2018-06-16T08:32:12.941Z,24.30
2018-06-16T08:34:41.708Z,24.44
2018-06-16T08:37:10.389Z,24.47
2018-06-16T08:39:38.995Z,24.39
2018-06-16T08:42:07.876Z,24.45
2018-06-16T08:44:36.567Z,24.54
2018-06-16T08:47:05.237Z,24.55
2018-06-16T08:49:34.101Z,24.66
2018-06-16T08:52:03.383Z,24.58
2018-06-16T08:54:32.023Z,24.37
2018-06-16T08:57:00.680Z,24.89
2018-06-16T08:59:29.392Z,25.03
2018-06-16T09:01:58.183Z,25.17
2018-06-16T09:04:26.807Z,25.32
2018-06-16T09:06:55.694Z,25.32
2018-06-16T09:09:24.781Z,25.20
2018-06-16T09:11:53.778Z,25.19
2018-06-16T09:14:23.004Z,25.32
2018-06-16T09:16:51.894Z,25.19
2018-06-16T09:19:20.863Z,25.32
2018-06-16T09:21:49.733Z,25.90
2018-06-16T09:24:18.872Z,26.01
2018-06-16T09:26:48.360Z,25.90
2018-06-16T09:29:17.003Z,26.11
2018-06-16T09:31:46.437Z,25.86
2018-06-16T09:34:15.324Z,26.14
2018-06-16T09:36:43.994Z,26.56
2018-06-16T09:39:13.058Z,26.66
2018-06-16T09:41:42.023Z,26.95
2018-06-16T09:44:11.657Z,26.70
2018-06-16T09:46:40.660Z,26.72
2018-06-16T09:49:09.641Z,26.94
2018-06-16T09:51:38.429Z,26.96
2018-06-16T09:54:07.469Z,27.15
2018-06-16T09:56:36.881Z,27.47
2018-06-16T09:59:05.775Z,27.58
2018-06-16T10:01:34.788Z,27.62
2018-06-16T10:04:03.597Z,27.92
2018-06-16T10:06:33.365Z,28.05
2018-06-16T10:09:02.253Z,28.42
2018-06-16T10:11:31.078Z,28.41
2018-06-16T10:14:00.251Z,28.29
2018-06-16T10:16:29.131Z,28.61
2018-06-16T10:18:57.887Z,28.49
2018-06-16T10:21:26.843Z,28.51
2018-06-16T10:23:56.205Z,28.49
2018-06-16T10:26:24.923Z,28.51
2018-06-16T10:28:54.049Z,28.27
2018-06-16T10:31:24.727Z,28.56
2018-06-16T10:33:53.753Z,28.42
2018-06-16T10:36:22.578Z,28.70
2018-06-16T10:38:52.245Z,28.82
2018-06-16T10:41:21.552Z,28.86
2018-06-16T10:43:50.345Z,29.26
2018-06-16T10:46:19.884Z,29.12
2018-06-16T10:48:49.345Z,28.94
2018-06-16T10:51:18.157Z,29.15
2018-06-16T10:53:47.165Z,29.29
2018-06-16T10:56:15.834Z,29.51
2018-06-16T10:58:44.799Z,29.39
2018-06-16T11:01:13.804Z,29.16
2018-06-16T11:03:42.680Z,29.29
2018-06-16T11:06:12.076Z,28.92
2018-06-16T11:08:40.859Z,29.14
2018-06-16T11:11:10.818Z,29.10
2018-06-16T11:13:39.662Z,29.00
2018-06-16T11:16:08.823Z,28.74
2018-06-16T11:18:38.189Z,29.11
2018-06-16T11:21:07.009Z,29.11
2018-06-16T11:23:36.518Z,28.88
2018-06-16T11:26:05.803Z,28.72
2018-06-16T11:28:35.331Z,28.73
2018-06-16T11:31:05.073Z,28.55
2018-06-16T11:33:34.018Z,27.90
2018-06-16T11:36:03.535Z,28.75
2018-06-16T11:38:32.792Z,29.30
2018-06-16T11:41:01.743Z,29.01
2018-06-16T11:43:30.556Z,28.73
2018-06-16T11:45:59.540Z,28.75
2018-06-16T11:48:29.404Z,28.33
2018-06-16T11:50:59.223Z,29.20
2018-06-16T11:53:28.387Z,29.73
2018-06-16T11:55:57.698Z,30.80
2018-06-16T11:58:26.767Z,31.25
2018-06-16T12:00:57.354Z,32.12
2018-06-16T12:03:26.234Z,32.71
2018-06-16T12:06:14.709Z,33.56
2018-06-16T12:08:44.188Z,33.82
2018-06-16T12:11:14.177Z,33.91
2018-06-16T12:13:42.887Z,33.77
2018-06-16T12:16:11.595Z,34.41
2018-06-16T12:18:40.299Z,36.36
2018-06-16T12:21:09.367Z,36.09
2018-06-16T12:23:38.219Z,35.94
2018-06-16T12:26:06.971Z,34.34
2018-06-16T12:28:35.628Z,32.53
2018-06-16T12:31:04.372Z,32.97
2018-06-16T12:33:33.285Z,35.80
2018-06-16T12:36:02.022Z,35.97
2018-06-16T12:38:30.754Z,37.47
2018-06-16T12:40:59.446Z,39.32
2018-06-16T12:43:28.260Z,39.28
2018-06-16T12:45:57.109Z,38.77
2018-06-16T12:48:25.879Z,39.63
2018-06-16T12:50:55.037Z,39.23
2018-06-16T12:53:23.682Z,36.30
2018-06-16T12:55:52.517Z,35.95
2018-06-16T12:58:21.155Z,36.30
2018-06-16T13:00:50.014Z,36.09
2018-06-16T13:03:18.805Z,37.69
2018-06-16T13:05:48.538Z,39.16
2018-06-16T13:08:17.395Z,37.13
2018-06-16T13:10:46.229Z,38.15
2018-06-16T13:13:14.917Z,38.21
2018-06-16T13:15:43.803Z,36.49
2018-06-16T13:18:12.496Z,36.18
2018-06-16T13:20:41.048Z,37.09
2018-06-16T13:23:09.722Z,37.63
2018-06-16T13:25:38.565Z,38.56
2018-06-16T13:28:07.632Z,37.77
2018-06-16T13:30:36.352Z,38.35
2018-06-16T13:33:05.007Z,37.35
2018-06-16T13:35:33.692Z,36.75
2018-06-16T13:38:02.431Z,34.36
2018-06-16T13:40:31.133Z,34.10
2018-06-16T13:42:59.880Z,32.86
2018-06-16T13:45:28.688Z,33.23
2018-06-16T13:47:57.558Z,34.54
2018-06-16T13:50:26.231Z,36.55
2018-06-16T13:52:54.928Z,35.62
2018-06-16T13:55:23.661Z,35.22
2018-06-16T13:57:52.425Z,34.99
2018-06-16T14:00:21.132Z,34.36
2018-06-16T14:02:49.768Z,33.64
2018-06-16T14:05:18.425Z,33.70
2018-06-16T14:07:47.248Z,33.50
2018-06-16T14:10:15.865Z,34.13
2018-06-16T14:12:44.685Z,33.69
2018-06-16T14:15:13.720Z,34.80
2018-06-16T14:17:42.404Z,35.26
2018-06-16T14:20:11.321Z,35.06
2018-06-16T14:22:40.135Z,35.26
2018-06-16T14:25:08.930Z,34.15
2018-06-16T14:27:37.654Z,33.66
2018-06-16T14:30:07.258Z,33.47
2018-06-16T14:32:36.146Z,33.49
2018-06-16T14:35:04.846Z,32.62
2018-06-16T14:37:33.496Z,32.98
2018-06-16T14:40:02.145Z,33.54
2018-06-16T14:42:30.801Z,32.48
2018-06-16T14:44:59.714Z,33.37
2018-06-16T14:47:28.371Z,33.39
2018-06-16T14:49:57.179Z,33.60
2018-06-16T14:52:26.187Z,34.43
2018-06-16T14:54:54.840Z,33.17
2018-06-16T14:57:23.542Z,33.94
2018-06-16T14:59:52.288Z,33.37
2018-06-16T15:02:20.835Z,33.06
2018-06-16T15:04:49.690Z,32.98
2018-06-16T15:07:18.411Z,32.18
2018-06-16T15:09:47.053Z,32.38
2018-06-16T15:12:15.859Z,32.54
2018-06-16T15:14:44.685Z,32.45
2018-06-16T15:17:13.417Z,33.60
2018-06-16T15:19:42.041Z,34.49
2018-06-16T15:22:10.716Z,36.57
2018-06-16T15:24:39.348Z,37.99
2018-06-16T15:27:07.966Z,40.01
2018-06-16T15:29:36.720Z,40.33
2018-06-16T15:32:05.437Z,40.83
2018-06-16T15:34:34.139Z,41.61
2018-06-16T15:37:02.842Z,41.10
2018-06-16T15:39:31.422Z,43.45
2018-06-16T15:42:00.224Z,44.73
2018-06-16T15:44:28.839Z,44.24
2018-06-16T15:46:57.631Z,44.24
2018-06-16T15:49:26.364Z,46.27
2018-06-16T15:51:55.006Z,45.00
2018-06-16T15:54:23.766Z,46.04
2018-06-16T15:56:52.378Z,45.70
2018-06-16T15:59:21.106Z,44.16
2018-06-16T16:01:49.788Z,42.93
2018-06-16T16:04:18.456Z,46.37
2018-06-16T16:06:47.082Z,47.27
2018-06-16T16:09:15.878Z,47.96
2018-06-16T16:11:44.634Z,47.28
2018-06-16T16:14:13.283Z,47.07
2018-06-16T16:16:41.945Z,48.44
2018-06-16T16:19:10.606Z,44.77
2018-06-16T16:21:39.282Z,42.96
2018-06-16T16:24:08.230Z,45.61
2018-06-16T16:26:36.960Z,44.62
2018-06-16T16:29:05.787Z,48.15
2018-06-16T16:31:34.417Z,46.89
2018-06-16T16:34:03.124Z,46.07
2018-06-16T16:36:31.860Z,43.81
2018-06-16T16:39:00.591Z,45.83
2018-06-16T16:41:29.197Z,46.02
2018-06-16T16:43:57.920Z,45.30
2018-06-16T16:46:27.724Z,47.42
2018-06-16T16:48:56.400Z,46.67
2018-06-16T16:51:25.008Z,47.35
2018-06-16T16:53:53.709Z,47.14
2018-06-16T16:56:22.352Z,44.45
2018-06-16T16:58:51.055Z,42.73
2018-06-16T17:01:19.645Z,42.94
2018-06-16T17:03:48.446Z,43.45
2018-06-16T17:06:17.050Z,42.19
2018-06-16T17:08:45.723Z,43.19
2018-06-16T17:11:14.476Z,43.57
2018-06-16T17:13:43.041Z,41.72
2018-06-16T17:16:11.681Z,41.38
2018-06-16T17:18:40.390Z,38.91
2018-06-16T17:21:09.041Z,39.08
2018-06-16T17:23:38.778Z,39.42
2018-06-16T17:26:07.641Z,37.15
2018-06-16T17:28:36.325Z,37.92
2018-06-16T17:31:05.078Z,39.29
2018-06-16T17:33:33.697Z,36.06
2018-06-16T17:36:02.463Z,33.82
2018-06-16T17:38:31.123Z,32.60
2018-06-16T17:40:59.793Z,32.73
2018-06-16T17:43:28.730Z,31.71
2018-06-16T17:45:57.404Z,30.52
2018-06-16T17:48:26.187Z,30.08
2018-06-16T17:50:54.820Z,29.42
2018-06-16T17:53:23.609Z,28.89
2018-06-16T17:55:52.463Z,28.39
2018-06-16T17:58:21.180Z,28.53
2018-06-16T18:00:49.856Z,28.07
2018-06-16T18:03:18.761Z,28.16
2018-06-16T18:05:47.420Z,27.81
2018-06-16T18:08:16.142Z,27.56
2018-06-16T18:10:44.876Z,27.06
2018-06-16T18:13:13.645Z,26.80
2018-06-16T18:15:42.557Z,26.22
2018-06-16T18:18:11.397Z,26.15
2018-06-16T18:20:40.031Z,25.95
2018-06-16T18:23:08.900Z,25.80
2018-06-16T18:25:37.481Z,25.64
2018-06-16T18:28:06.313Z,25.60
2018-06-16T18:30:35.257Z,25.40
2018-06-16T18:33:05.143Z,25.31
2018-06-16T18:35:33.835Z,25.40
2018-06-16T18:38:02.553Z,25.30
2018-06-16T18:40:31.190Z,25.48
2018-06-16T18:42:59.921Z,25.44
2018-06-16T18:45:28.640Z,25.39
2018-06-16T18:47:57.350Z,25.39
2018-06-16T18:50:26.168Z,25.29
2018-06-16T18:52:54.994Z,24.98
2018-06-16T18:55:23.703Z,24.95
2018-06-16T18:57:52.470Z,24.68
2018-06-16T19:00:21.131Z,24.68
2018-06-16T19:02:49.766Z,24.65
2018-06-16T19:05:18.504Z,24.66
2018-06-16T19:07:47.221Z,24.41
2018-06-16T19:10:16.024Z,24.09
2018-06-16T19:12:44.684Z,23.78
2018-06-16T19:15:13.399Z,23.53
2018-06-16T19:17:42.137Z,23.25
2018-06-16T19:20:10.969Z,23.03
2018-06-16T19:22:46.984Z,22.84
2018-06-16T19:25:18.878Z,22.62
2018-06-16T19:27:50.199Z,22.40
2018-06-16T19:30:19.045Z,22.21
2018-06-16T19:32:48.944Z,21.99
2018-06-16T19:35:17.641Z,21.80
2018-06-16T19:37:46.288Z,21.65
2018-06-16T19:40:15.047Z,21.49
2018-06-16T19:42:43.820Z,21.36
2018-06-16T19:45:12.765Z,21.25
2018-06-16T19:47:41.496Z,21.19
2018-06-16T19:50:10.587Z,21.08
2018-06-16T19:52:39.787Z,21.03
2018-06-16T19:55:08.423Z,20.95
2018-06-16T19:57:37.457Z,20.88
2018-06-16T20:00:06.653Z,20.88
2018-06-16T20:02:36.126Z,20.93
2018-06-16T20:05:05.960Z,21.01
2018-06-16T20:07:35.274Z,21.02
2018-06-16T20:10:04.231Z,21.02
2018-06-16T20:12:33.533Z,21.00
2018-06-16T20:15:02.699Z,21.00
2018-06-16T20:17:31.795Z,21.03
2018-06-16T20:20:00.727Z,21.04
2018-06-16T20:22:29.434Z,21.06
2018-06-16T20:24:59.393Z,21.09
2018-06-16T20:27:28.157Z,21.15
2018-06-16T20:29:57.418Z,21.18
2018-06-16T20:32:26.229Z,21.16
2018-06-16T20:34:55.034Z,21.12
2018-06-16T20:37:23.925Z,21.13
2018-06-16T20:39:53.522Z,21.06
2018-06-16T20:42:25.088Z,21.05
2018-06-16T20:44:54.076Z,20.99
2018-06-16T20:47:23.168Z,20.95
2018-06-16T20:49:52.071Z,20.94
2018-06-16T20:52:21.202Z,20.93
2018-06-16T20:54:50.315Z,20.92
2018-06-16T20:57:19.292Z,20.89
2018-06-16T20:59:48.833Z,20.87
2018-06-16T21:02:17.820Z,20.88
2018-06-16T21:04:47.620Z,20.87
2018-06-16T21:07:16.677Z,20.87
2018-06-16T21:09:45.716Z,20.83
2018-06-16T21:12:14.734Z,20.85
2018-06-16T21:14:43.697Z,20.81
2018-06-16T21:17:13.171Z,20.73
2018-06-16T21:19:43.394Z,20.72
2018-06-16T21:22:12.360Z,20.64
2018-06-16T21:24:41.391Z,20.49
2018-06-16T21:27:10.450Z,20.44
2018-06-16T21:29:39.741Z,20.28
2018-06-16T21:32:09.168Z,20.20
2018-06-16T21:34:38.395Z,20.13
2018-06-16T21:37:07.536Z,20.00
2018-06-16T21:39:37.838Z,19.89
2018-06-16T21:42:06.844Z,19.73
2018-06-16T21:44:35.616Z,19.51
2018-06-16T21:47:05.193Z,19.37
2018-06-16T21:49:34.467Z,19.32
2018-06-16T21:52:03.769Z,19.21
2018-06-16T21:54:32.684Z,19.07
2018-06-16T21:57:01.525Z,18.90
2018-06-16T21:59:30.336Z,18.74
2018-06-16T22:01:59.540Z,18.66
2018-06-16T22:04:28.593Z,18.63
2018-06-16T22:06:57.524Z,18.55
2018-06-16T22:09:26.467Z,18.46
2018-06-16T22:11:55.536Z,18.45
2018-06-16T22:14:24.194Z,18.41
2018-06-16T22:16:52.965Z,18.39
2018-06-16T22:19:22.068Z,18.46
2018-06-16T22:21:51.380Z,18.36
2018-06-16T22:24:20.001Z,18.26
2018-06-16T22:26:49.057Z,18.25
2018-06-16T22:29:18.458Z,18.27
2018-06-16T22:31:47.473Z,18.33
2018-06-16T22:34:16.357Z,18.28
2018-06-16T22:36:45.379Z,18.34
2018-06-16T22:39:15.101Z,18.37
2018-06-16T22:41:44.012Z,18.37
2018-06-16T22:44:13.022Z,18.29
2018-06-16T22:46:42.807Z,18.32
2018-06-16T22:49:11.682Z,18.28
2018-06-16T22:51:40.627Z,18.27
2018-06-16T22:54:10.345Z,18.43
2018-06-16T22:56:39.256Z,18.44
2018-06-16T22:59:08.859Z,18.47
2018-06-16T23:01:38.710Z,18.49
2018-06-16T23:04:07.589Z,18.47
2018-06-16T23:06:36.674Z,18.52
2018-06-16T23:09:08.515Z,18.55
2018-06-16T23:11:38.917Z,18.55
2018-06-16T23:14:18.329Z,18.60
2018-06-16T23:16:46.947Z,18.59
2018-06-16T23:19:16.025Z,18.65
2018-06-16T23:21:45.204Z,18.67
2018-06-16T23:24:14.105Z,19.09
2018-06-16T23:26:44.181Z,19.25
2018-06-16T23:29:13.119Z,19.42
2018-06-16T23:31:42.137Z,19.51
2018-06-16T23:34:11.544Z,19.50
2018-06-16T23:36:40.432Z,19.37
2018-06-16T23:39:11.546Z,19.30
2018-06-16T23:41:40.868Z,19.18
2018-06-16T23:44:10.029Z,19.13
2018-06-16T23:46:39.584Z,19.16
2018-06-16T23:49:09.123Z,19.04
2018-06-16T23:51:38.257Z,19.02
2018-06-16T23:54:07.306Z,18.98
2018-06-16T23:56:36.018Z,18.98
2018-06-16T23:59:05.202Z,18.97
